Time;durP1;ratioP1;P1;durP2;ratioP2;P2;SDS_P1;SDS_P2;PMS_P1;PMS_P2;Temp;Humidity;BMP_temperature;BMP_pressure;BME280_temperature;BME280_humidity;BME280_pressure;Samples;Min_cycle;Max_cycle;Signal;HPM_P1;HPM_P2
2022/12/19 00:01:58;;;;;;;64.43;27.80;;;-0.30;82.80;;;;;;5023602;28;20239;-75
2022/12/19 00:04:24;;;;;;;64.60;26.50;;;-0.30;81.90;;;;;;5027269;28;20185;-73
2022/12/19 00:06:49;;;;;;;69.47;26.70;;;-0.30;81.70;;;;;;5031131;28;20481;-74
2022/12/19 00:09:15;;;;;;;65.00;25.17;;;-0.40;81.50;;;;;;5031744;28;20185;-73
2022/12/19 00:11:41;;;;;;;59.33;25.10;;;-0.40;81.40;;;;;;5021543;28;20270;-72
2022/12/19 00:14:09;;;;;;;55.57;25.30;;;-0.60;80.90;;;;;;5024912;28;20229;-71
2022/12/19 00:16:35;;;;;;;60.10;24.45;;;-0.70;81.20;;;;;;5025116;28;20243;-74
2022/12/19 00:19:01;;;;;;;57.47;24.07;;;-0.80;81.50;;;;;;5030814;28;20213;-72
2022/12/19 00:21:29;;;;;;;59.37;24.80;;;-0.80;81.90;;;;;;5024461;28;20236;-74
2022/12/19 00:23:55;;;;;;;65.60;24.80;;;-0.70;82.10;;;;;;5020101;28;20189;-74
2022/12/19 00:26:21;;;;;;;57.70;24.90;;;-0.60;82.20;;;;;;5021816;28;20192;-73
2022/12/19 00:28:50;;;;;;;59.35;25.58;;;-0.70;82.40;;;;;;5019614;28;20928;-74
2022/12/19 00:31:17;;;;;;;57.70;26.05;;;-0.60;82.70;;;;;;5022093;28;20214;-72
2022/12/19 00:33:43;;;;;;;54.38;22.50;;;-0.60;82.80;;;;;;5022063;28;20273;-73
2022/12/19 00:36:14;;;;;;;60.95;24.75;;;-0.60;83.30;;;;;;5022583;28;20626;-72
2022/12/19 00:38:43;;;;;;;59.10;24.30;;;-0.50;83.30;;;;;;5018773;28;20679;-73
2022/12/19 00:41:18;;;;;;;57.13;24.55;;;-0.40;83.40;;;;;;5020710;28;20260;-73
2022/12/19 00:43:44;;;;;;;59.47;24.90;;;-0.30;83.80;;;;;;5024762;28;20189;-73
2022/12/19 00:46:13;;;;;;;66.85;25.17;;;-0.30;84.00;;;;;;5024942;28;20177;-73
2022/12/19 00:48:38;;;;;;;67.22;25.75;;;-0.20;84.10;;;;;;5023285;28;20181;-73
2022/12/19 00:51:08;;;;;;;63.20;26.90;;;-0.10;84.30;;;;;;5026337;28;20679;-72
2022/12/19 00:53:34;;;;;;;63.33;24.55;;;-0.20;84.10;;;;;;5017553;28;20212;-73
2022/12/19 00:56:05;;;;;;;58.60;25.30;;;-0.20;84.10;;;;;;5023032;28;20189;-74
2022/12/19 00:58:31;;;;;;;58.00;24.85;;;-0.30;83.80;;;;;;5024610;28;20283;-73
2022/12/19 01:00:56;;;;;;;60.43;25.80;;;-0.30;83.60;;;;;;5018811;28;20209;-74
2022/12/19 01:03:23;;;;;;;66.67;25.20;;;-0.30;83.80;;;;;;5024361;28;20509;-73
2022/12/19 01:05:52;;;;;;;61.13;25.85;;;-0.20;83.80;;;;;;5019332;28;20189;-73
2022/12/19 01:08:18;;;;;;;61.25;25.13;;;-0.20;83.70;;;;;;5022517;28;20722;-74
2022/12/19 01:10:48;;;;;;;64.40;25.35;;;-0.20;83.80;;;;;;5028070;28;20209;-73
2022/12/19 01:13:17;;;;;;;64.97;26.42;;;-0.20;83.70;;;;;;5024627;28;20190;-73
2022/12/19 01:15:43;;;;;;;59.42;23.80;;;-0.20;83.70;;;;;;5024544;28;20341;-73
2022/12/19 01:18:10;;;;;;;54.03;24.15;;;-0.20;83.30;;;;;;5023400;28;20572;-73
2022/12/19 01:20:40;;;;;;;59.53;25.25;;;-0.20;83.10;;;;;;5021282;28;20190;-75
2022/12/19 01:23:07;;;;;;;61.55;25.17;;;-0.10;83.30;;;;;;5023653;28;20181;-74
2022/12/19 01:25:34;;;;;;;60.63;26.35;;;-0.10;83.00;;;;;;5021639;28;20918;-72
2022/12/19 01:28:00;;;;;;;51.40;22.95;;;-0.10;82.80;;;;;;5024164;28;20204;-73
2022/12/19 01:30:26;;;;;;;62.20;25.00;;;0.00;82.80;;;;;;5024678;28;20185;-75
2022/12/19 01:32:52;;;;;;;54.22;25.02;;;0.00;82.80;;;;;;5023109;28;20205;-73
2022/12/19 01:35:18;;;;;;;68.67;26.87;;;0.00;83.00;;;;;;5017031;28;20193;-72
2022/12/19 01:37:43;;;;;;;55.13;26.00;;;0.00;83.00;;;;;;5025846;28;20292;-74
2022/12/19 01:40:11;;;;;;;58.60;24.77;;;0.10;83.10;;;;;;5022692;28;20229;-73
2022/12/19 01:42:37;;;;;;;55.03;23.80;;;0.10;83.10;;;;;;5020207;28;20225;-73
2022/12/19 01:45:09;;;;;;;50.73;23.80;;;0.10;83.30;;;;;;5027023;28;20174;-73
2022/12/19 01:48:02;;;;;;;51.13;23.70;;;0.20;83.10;;;;;;5022347;28;20990;-73
2022/12/19 01:50:54;;;;;;;67.72;27.02;;;0.20;83.40;;;;;;5018224;28;20201;-76
2022/12/19 01:53:21;;;;;;;56.15;23.65;;;0.20;83.60;;;;;;5024423;28;20318;-73
2022/12/19 01:55:47;;;;;;;55.17;25.08;;;0.20;83.70;;;;;;5024437;28;20671;-72
2022/12/19 01:58:13;;;;;;;65.23;26.30;;;0.20;83.80;;;;;;5020317;28;20209;-73
2022/12/19 02:00:43;;;;;;;73.03;25.80;;;0.20;84.00;;;;;;5021403;28;20451;-72
2022/12/19 02:03:27;;;;;;;58.25;25.05;;;0.30;83.80;;;;;;5020623;28;20214;-73
2022/12/19 02:05:54;;;;;;;60.20;24.73;;;0.30;84.10;;;;;;5022382;28;20177;-72
2022/12/19 02:08:22;;;;;;;66.95;24.17;;;0.30;84.10;;;;;;5021484;28;20559;-72
2022/12/19 02:10:48;;;;;;;58.42;25.15;;;0.40;84.30;;;;;;5024360;28;20268;-72
2022/12/19 02:13:14;;;;;;;52.23;24.87;;;0.40;84.30;;;;;;5020017;28;20301;-74
2022/12/19 02:16:02;;;;;;;56.40;23.57;;;0.50;84.30;;;;;;5022218;28;20548;-72
2022/12/19 02:18:45;;;;;;;60.78;27.23;;;0.50;84.10;;;;;;5026386;28;20546;-73
2022/12/19 02:21:43;;;;;;;64.30;27.63;;;0.50;83.70;;;;;;5036165;28;20625;-72
2022/12/19 02:24:40;;;;;;;63.92;27.17;;;0.40;82.70;;;;;;5025905;28;20185;-72
2022/12/19 02:27:21;;;;;;;72.18;27.45;;;0.40;82.40;;;;;;5018171;28;20182;-72
2022/12/19 02:30:03;;;;;;;59.28;25.45;;;0.40;82.70;;;;;;5023097;28;20187;-74
2022/12/19 02:32:48;;;;;;;61.58;25.77;;;0.40;83.00;;;;;;5024191;28;20207;-72
2022/12/19 02:35:25;;;;;;;58.65;26.00;;;0.40;83.00;;;;;;5017702;28;20188;-73
2022/12/19 02:38:13;;;;;;;59.22;23.80;;;0.40;83.00;;;;;;5022918;28;20236;-73
2022/12/19 02:40:48;;;;;;;60.47;27.55;;;0.40;82.80;;;;;;5013343;28;20328;-73
2022/12/19 02:43:15;;;;;;;63.70;26.02;;;0.50;83.00;;;;;;5017508;28;20197;-74
2022/12/19 02:45:41;;;;;;;58.80;26.00;;;0.50;83.00;;;;;;5030765;28;20262;-73
2022/12/19 02:48:08;;;;;;;61.40;27.05;;;0.50;83.00;;;;;;5034437;28;20189;-73
2022/12/19 02:50:39;;;;;;;57.17;26.25;;;0.50;83.10;;;;;;5034698;28;20223;-73
2022/12/19 02:53:05;;;;;;;67.43;29.60;;;0.50;83.40;;;;;;5045544;28;20205;-72
2022/12/19 02:55:37;;;;;;;71.43;28.30;;;0.40;83.60;;;;;;5037878;28;20177;-72
2022/12/19 02:58:09;;;;;;;61.15;27.83;;;0.40;83.60;;;;;;5036413;28;20274;-73
2022/12/19 03:00:46;;;;;;;61.38;29.23;;;0.40;83.80;;;;;;5040617;28;20213;-74
2022/12/19 03:03:25;;;;;;;59.58;26.17;;;0.50;84.10;;;;;;5040456;28;20176;-74
2022/12/19 03:06:00;;;;;;;62.80;29.80;;;0.40;84.10;;;;;;5032528;28;20551;-73
2022/12/19 03:08:47;;;;;;;63.75;30.27;;;0.50;84.60;;;;;;5021518;28;20669;-75
2022/12/19 03:11:14;;;;;;;67.13;29.05;;;0.50;84.70;;;;;;5026462;28;20621;-72
2022/12/19 03:13:53;;;;;;;68.65;31.40;;;0.50;85.00;;;;;;5026631;28;20208;-74
2022/12/19 03:16:19;;;;;;;67.90;28.73;;;0.60;85.50;;;;;;5028984;28;20198;-74
2022/12/19 03:18:45;;;;;;;72.17;28.73;;;0.70;85.20;;;;;;5021752;28;20205;-75
2022/12/19 03:21:20;;;;;;;66.57;28.70;;;0.70;84.90;;;;;;5030186;28;20274;-72
2022/12/19 03:23:47;;;;;;;60.63;29.17;;;0.70;84.90;;;;;;5027811;28;20679;-72
2022/12/19 03:26:23;;;;;;;69.13;30.02;;;0.70;84.90;;;;;;5025982;28;20178;-74
2022/12/19 03:28:57;;;;;;;65.50;27.98;;;0.60;84.90;;;;;;5023785;28;20231;-73
2022/12/19 03:31:27;;;;;;;65.93;29.23;;;0.60;85.00;;;;;;5029358;28;20211;-73
2022/12/19 03:34:18;;;;;;;69.00;31.48;;;0.60;85.30;;;;;;5027866;28;20184;-73
2022/12/19 03:36:48;;;;;;;70.60;32.13;;;0.70;85.50;;;;;;5019796;28;20223;-74
2022/12/19 03:39:16;;;;;;;74.88;31.95;;;0.60;85.50;;;;;;5025348;28;20608;-74
2022/12/19 03:44:32;;;;;;;60.67;29.20;;;0.70;85.90;;;;;;5034658;28;20231;-75
2022/12/19 03:47:04;;;;;;;68.03;29.58;;;0.70;86.00;;;;;;5025933;28;20280;-73
2022/12/19 03:49:30;;;;;;;68.95;30.30;;;0.80;86.00;;;;;;5028989;28;20191;-72
2022/12/19 03:52:15;;;;;;;64.17;28.13;;;0.80;86.20;;;;;;5030208;28;20300;-73
2022/12/19 03:54:49;;;;;;;66.10;28.80;;;0.90;86.30;;;;;;5026478;28;20431;-73
2022/12/19 03:57:38;;;;;;;79.72;30.95;;;0.90;86.30;;;;;;5037123;28;20186;-74
2022/12/19 04:00:08;;;;;;;72.00;30.60;;;0.90;86.30;;;;;;5022393;28;20186;-75
2022/12/19 04:02:37;;;;;;;72.32;32.08;;;0.90;86.00;;;;;;5029691;28;20276;-74
2022/12/19 04:05:11;;;;;;;70.97;28.75;;;0.90;85.90;;;;;;5022236;28;20190;-75
2022/12/19 04:07:37;;;;;;;69.55;29.10;;;0.90;85.70;;;;;;5027586;28;20626;-76
2022/12/19 04:10:14;;;;;;;72.45;30.52;;;0.90;85.70;;;;;;5014801;28;20260;-74
2022/12/19 04:12:46;;;;;;;67.15;28.92;;;1.00;85.70;;;;;;5023272;28;20212;-76
2022/12/19 04:15:12;;;;;;;74.65;30.42;;;1.00;85.70;;;;;;5024260;28;21021;-74
2022/12/19 04:17:43;;;;;;;78.75;31.02;;;1.00;85.60;;;;;;5026040;28;20205;-73
2022/12/19 04:20:18;;;;;;;63.38;28.38;;;1.00;85.50;;;;;;5018415;28;20178;-77
2022/12/19 04:23:13;;;;;;;64.88;29.40;;;1.10;85.50;;;;;;5026697;28;20256;-75
2022/12/19 04:25:44;;;;;;;64.97;29.50;;;1.10;85.30;;;;;;5025795;28;20186;-74
2022/12/19 04:28:17;;;;;;;64.50;28.48;;;1.20;85.50;;;;;;5025589;28;20193;-73
2022/12/19 04:30:44;;;;;;;65.97;29.77;;;1.20;85.50;;;;;;5017136;28;20259;-74
2022/12/19 04:33:09;;;;;;;61.35;27.70;;;1.20;85.70;;;;;;5023775;28;20220;-77
2022/12/19 04:35:35;;;;;;;74.90;29.70;;;1.20;86.00;;;;;;5029903;28;20181;-74
2022/12/19 04:38:01;;;;;;;68.50;28.53;;;1.20;86.20;;;;;;5031076;28;20219;-76
2022/12/19 04:40:27;;;;;;;59.33;29.50;;;1.30;86.60;;;;;;5032892;28;20422;-76
2022/12/19 04:42:53;;;;;;;64.00;30.63;;;1.30;86.60;;;;;;5027164;28;20185;-75
2022/12/19 04:45:18;;;;;;;70.83;30.50;;;1.30;86.80;;;;;;5031612;28;20202;-75
2022/12/19 04:47:44;;;;;;;72.03;29.60;;;1.30;87.00;;;;;;5024631;28;20268;-74
2022/12/19 04:50:09;;;;;;;64.70;28.47;;;1.40;87.10;;;;;;5024210;28;20259;-76
2022/12/19 04:52:35;;;;;;;58.50;27.30;;;1.40;87.10;;;;;;5019947;28;20232;-75
2022/12/19 04:55:00;;;;;;;69.93;29.47;;;1.40;87.40;;;;;;5028469;28;20268;-74
2022/12/19 04:57:30;;;;;;;69.37;30.20;;;1.50;87.70;;;;;;5032952;28;20664;-76
2022/12/19 04:59:56;;;;;;;65.07;27.95;;;1.50;87.80;;;;;;5031584;28;20274;-75
2022/12/19 05:02:21;;;;;;;63.60;29.33;;;1.50;88.00;;;;;;5024011;28;20220;-73
2022/12/19 05:04:47;;;;;;;66.37;28.03;;;1.60;88.10;;;;;;5028131;28;20223;-74
2022/12/19 05:07:13;;;;;;;63.40;28.55;;;1.60;88.40;;;;;;5031339;28;20887;-76
2022/12/19 05:09:39;;;;;;;62.60;25.97;;;1.60;88.60;;;;;;5025593;28;20185;-75
2022/12/19 05:12:05;;;;;;;57.93;24.67;;;1.70;88.90;;;;;;5017192;28;20216;-76
2022/12/19 05:14:31;;;;;;;61.17;25.45;;;1.70;89.00;;;;;;5022893;28;20187;-74
2022/12/19 05:16:57;;;;;;;54.40;24.67;;;1.70;89.00;;;;;;5019138;28;20185;-76
2022/12/19 05:19:22;;;;;;;58.83;25.83;;;1.80;89.20;;;;;;5021649;28;20210;-73
2022/12/19 05:21:48;;;;;;;55.97;24.87;;;1.80;89.20;;;;;;5023192;28;20205;-74
2022/12/19 05:24:14;;;;;;;54.73;25.70;;;1.80;89.20;;;;;;5021736;28;20551;-75
2022/12/19 05:26:40;;;;;;;61.25;27.33;;;1.80;89.30;;;;;;5029537;28;20682;-76
2022/12/19 05:29:06;;;;;;;56.13;26.37;;;1.80;89.20;;;;;;5020525;28;20194;-73
2022/12/19 05:31:32;;;;;;;67.00;26.65;;;1.80;89.30;;;;;;5025464;28;20292;-74
2022/12/19 05:33:57;;;;;;;71.80;29.33;;;1.80;89.30;;;;;;5021559;28;20319;-74
2022/12/19 05:36:23;;;;;;;62.77;27.57;;;1.80;89.50;;;;;;5029807;28;20295;-75
2022/12/19 05:38:48;;;;;;;63.83;28.60;;;1.90;89.60;;;;;;5024736;28;20205;-76
2022/12/19 05:41:17;;;;;;;66.50;26.70;;;1.90;89.70;;;;;;5023043;28;20691;-74
2022/12/19 05:43:44;;;;;;;65.10;26.60;;;1.80;89.70;;;;;;5023422;28;20532;-74
2022/12/19 05:46:10;;;;;;;67.32;26.15;;;1.90;89.90;;;;;;5029942;28;20195;-73
2022/12/19 05:48:36;;;;;;;65.57;27.00;;;2.00;90.00;;;;;;5029116;28;20177;-74
2022/12/19 05:51:02;;;;;;;70.97;26.75;;;2.00;90.00;;;;;;5028393;28;20463;-75
2022/12/19 05:53:28;;;;;;;58.75;25.20;;;2.00;89.90;;;;;;5021681;28;20200;-74
2022/12/19 05:56:12;;;;;;;63.60;24.63;;;2.10;90.00;;;;;;5029450;28;20250;-75
2022/12/19 05:58:39;;;;;;;61.47;27.30;;;2.20;90.10;;;;;;5020056;28;20254;-73
2022/12/19 06:01:13;;;;;;;55.75;24.50;;;2.10;90.00;;;;;;5023344;28;20516;-74
2022/12/19 06:03:39;;;;;;;50.42;22.70;;;2.10;90.10;;;;;;5021501;28;20183;-73
2022/12/19 06:06:11;;;;;;;53.33;22.60;;;2.20;90.20;;;;;;5030280;28;20177;-76
2022/12/19 06:08:37;;;;;;;60.25;25.10;;;2.20;90.20;;;;;;5028331;28;20241;-74
2022/12/19 06:11:04;;;;;;;64.77;25.60;;;2.20;90.20;;;;;;5022875;28;20576;-75
2022/12/19 06:13:31;;;;;;;55.92;24.83;;;2.20;90.20;;;;;;5033339;28;20420;-73
2022/12/19 06:16:16;;;;;;;55.57;23.60;;;2.20;90.20;;;;;;5030713;28;20190;-73
2022/12/19 06:18:43;;;;;;;65.68;25.30;;;2.20;90.20;;;;;;5031841;28;20467;-73
2022/12/19 06:21:17;;;;;;;60.70;24.33;;;2.20;90.30;;;;;;5025511;28;20605;-75
2022/12/19 06:23:43;;;;;;;59.20;23.67;;;2.20;90.40;;;;;;5035119;28;20185;-73
2022/12/19 06:26:12;;;;;;;63.20;26.90;;;2.20;90.50;;;;;;5027275;28;20424;-73
2022/12/19 06:28:37;;;;;;;65.75;27.50;;;2.30;90.60;;;;;;5028331;28;20609;-75
2022/12/19 06:31:06;;;;;;;74.50;28.43;;;2.20;90.50;;;;;;5024025;28;20217;-74
2022/12/19 06:33:32;;;;;;;61.03;25.67;;;2.20;90.40;;;;;;5017756;28;20648;-73
2022/12/19 06:35:58;;;;;;;65.30;27.65;;;2.20;90.30;;;;;;5026652;28;20185;-74
2022/12/19 06:38:24;;;;;;;70.40;26.57;;;2.30;90.10;;;;;;5026259;28;20213;-75
2022/12/19 06:43:34;;;;;;;65.63;25.80;;;2.30;89.90;;;;;;5025960;28;20200;-75
2022/12/19 06:45:59;;;;;;;64.87;26.50;;;2.30;89.90;;;;;;5020475;28;20182;-74
2022/12/19 06:48:26;;;;;;;70.23;26.50;;;2.40;90.00;;;;;;5025399;28;20251;-74
2022/12/19 06:50:52;;;;;;;59.93;26.57;;;2.40;90.10;;;;;;5022110;28;20692;-75
2022/12/19 06:53:19;;;;;;;51.63;24.30;;;2.40;90.20;;;;;;5028624;28;20471;-73
2022/12/19 06:55:45;;;;;;;55.10;24.60;;;2.50;90.30;;;;;;5016192;28;20268;-74
2022/12/19 06:58:11;;;;;;;55.90;22.47;;;2.50;90.30;;;;;;5035779;28;20468;-74
2022/12/19 07:00:37;;;;;;;63.80;26.03;;;2.50;90.30;;;;;;5030980;28;20409;-74
2022/12/19 07:03:06;;;;;;;60.10;25.80;;;2.40;90.40;;;;;;5022630;28;20705;-76
2022/12/19 07:05:32;;;;;;;66.00;26.30;;;2.50;90.70;;;;;;5027398;28;20181;-74
2022/12/19 07:07:58;;;;;;;72.10;29.27;;;2.40;90.70;;;;;;5028433;28;20957;-76
2022/12/19 07:10:23;;;;;;;70.57;26.00;;;2.40;90.60;;;;;;5022602;28;20436;-74
2022/12/19 07:12:49;;;;;;;77.87;28.53;;;2.40;90.60;;;;;;5022535;28;20508;-74
2022/12/19 07:15:15;;;;;;;64.90;24.67;;;2.40;90.60;;;;;;5026818;28;20200;-72
2022/12/19 07:17:40;;;;;;;66.77;25.30;;;2.40;90.40;;;;;;5020153;28;20216;-76
2022/12/19 07:20:06;;;;;;;63.93;26.60;;;2.40;90.60;;;;;;5024356;28;20200;-73
2022/12/19 07:22:33;;;;;;;59.07;24.80;;;2.50;90.60;;;;;;5027908;28;20256;-73
2022/12/19 07:25:01;;;;;;;55.80;23.07;;;2.50;90.70;;;;;;5025367;28;20929;-75
2022/12/19 07:27:27;;;;;;;61.10;24.00;;;2.60;90.70;;;;;;5016900;28;20460;-74
2022/12/19 07:29:53;;;;;;;59.97;24.10;;;2.60;90.70;;;;;;5025190;28;20425;-74
2022/12/19 07:32:20;;;;;;;61.67;24.20;;;2.60;90.70;;;;;;5019284;28;20522;-73
2022/12/19 07:34:45;;;;;;;52.70;22.90;;;2.60;90.80;;;;;;5022765;28;20433;-73
2022/12/19 07:37:11;;;;;;;63.00;23.77;;;2.60;90.80;;;;;;5022272;28;20795;-73
2022/12/19 07:39:36;;;;;;;52.77;21.07;;;2.70;90.90;;;;;;5025620;28;20268;-72
2022/12/19 07:42:02;;;;;;;57.63;22.37;;;2.80;90.80;;;;;;5025830;28;20642;-73
2022/12/19 07:44:28;;;;;;;55.80;22.53;;;2.80;90.70;;;;;;5025463;28;20310;-73
2022/12/19 07:46:53;;;;;;;62.30;26.27;;;2.90;90.60;;;;;;5021116;28;20221;-73
2022/12/19 07:49:19;;;;;;;52.53;23.13;;;3.00;90.30;;;;;;5018152;28;20208;-71
2022/12/19 07:51:45;;;;;;;58.50;22.20;;;2.90;90.20;;;;;;5021487;28;20208;-74
2022/12/19 07:54:10;;;;;;;51.23;23.10;;;3.00;90.30;;;;;;5027000;28;20200;-71
2022/12/19 07:56:36;;;;;;;45.80;22.17;;;3.10;90.20;;;;;;5019060;28;20189;-72
2022/12/19 07:59:01;;;;;;;56.43;20.97;;;3.10;90.20;;;;;;5027328;28;20700;-73
2022/12/19 08:01:27;;;;;;;45.70;20.73;;;3.10;90.20;;;;;;5024667;28;20660;-74
2022/12/19 08:03:53;;;;;;;43.33;19.23;;;3.20;90.10;;;;;;5034638;28;20186;-73
2022/12/19 08:06:18;;;;;;;65.30;19.10;;;3.30;90.00;;;;;;5021730;28;20276;-72
2022/12/19 08:08:44;;;;;;;53.60;19.83;;;3.30;89.90;;;;;;5028421;28;20181;-73
2022/12/19 08:11:18;;;;;;;54.37;19.37;;;3.40;89.50;;;;;;5027396;28;20240;-72
2022/12/19 08:13:44;;;;;;;43.43;18.80;;;3.40;89.50;;;;;;5022162;28;20197;-74
2022/12/19 08:16:10;;;;;;;50.13;20.40;;;3.50;89.50;;;;;;5026579;28;20481;-74
2022/12/19 08:18:36;;;;;;;54.47;21.13;;;3.50;89.30;;;;;;5021789;28;20469;-72
2022/12/19 08:21:01;;;;;;;47.30;20.10;;;3.60;89.30;;;;;;5025561;28;20492;-75
2022/12/19 08:23:27;;;;;;;52.03;21.57;;;3.60;89.20;;;;;;5025596;28;20185;-73
2022/12/19 08:26:00;;;;;;;59.37;20.33;;;3.60;89.20;;;;;;5026295;28;20212;-74
2022/12/19 08:28:26;;;;;;;55.20;23.17;;;3.70;89.20;;;;;;5018604;28;20724;-73
2022/12/19 08:30:52;;;;;;;53.80;23.57;;;3.80;89.00;;;;;;5026489;28;20550;-74
2022/12/19 08:33:18;;;;;;;54.37;23.00;;;3.80;88.70;;;;;;5019097;28;20476;-73
2022/12/19 08:35:43;;;;;;;42.30;20.20;;;3.90;88.60;;;;;;5024149;28;20188;-74
2022/12/19 08:38:09;;;;;;;43.30;19.93;;;3.90;88.30;;;;;;5018070;28;20213;-74
2022/12/19 08:40:35;;;;;;;45.43;18.83;;;4.00;88.10;;;;;;5025246;28;20648;-74
2022/12/19 08:43:00;;;;;;;41.73;18.13;;;4.00;88.10;;;;;;5018245;28;20668;-73
2022/12/19 08:45:26;;;;;;;47.20;19.83;;;4.10;88.00;;;;;;5021563;28;20189;-74
2022/12/19 08:47:51;;;;;;;41.23;18.20;;;4.20;88.00;;;;;;5019996;28;20193;-74
2022/12/19 08:50:17;;;;;;;38.00;17.23;;;4.30;87.70;;;;;;5028514;28;20196;-75
2022/12/19 08:52:42;;;;;;;44.37;20.60;;;4.30;87.60;;;;;;5027312;28;20232;-75
2022/12/19 08:55:09;;;;;;;40.23;19.03;;;4.40;87.60;;;;;;5031488;28;20861;-74
2022/12/19 08:57:34;;;;;;;41.40;18.33;;;4.40;87.40;;;;;;5023714;28;20301;-74
2022/12/19 09:00:00;;;;;;;39.67;18.00;;;4.40;87.30;;;;;;5023705;28;20508;-75
2022/12/19 09:02:26;;;;;;;41.20;18.80;;;4.40;87.30;;;;;;5026498;28;20212;-74
2022/12/19 09:04:51;;;;;;;37.03;16.83;;;4.50;87.30;;;;;;5018491;28;20194;-74
2022/12/19 09:07:17;;;;;;;37.83;18.23;;;4.60;87.10;;;;;;5028733;28;20185;-73
2022/12/19 09:09:43;;;;;;;45.10;19.90;;;4.60;87.00;;;;;;5022714;28;20174;-74
2022/12/19 09:12:11;;;;;;;45.13;18.10;;;4.60;87.10;;;;;;5026638;28;20205;-74
2022/12/19 09:14:36;;;;;;;40.23;17.83;;;4.70;86.80;;;;;;5023476;28;20502;-74
2022/12/19 09:17:02;;;;;;;38.23;17.53;;;4.70;86.60;;;;;;5027320;28;20424;-75
2022/12/19 09:19:28;;;;;;;44.30;19.40;;;4.70;86.60;;;;;;5018023;28;20207;-75
2022/12/19 09:21:53;;;;;;;44.33;18.80;;;4.80;86.80;;;;;;5021415;28;20878;-74
2022/12/19 09:24:19;;;;;;;41.80;17.90;;;4.80;86.60;;;;;;5019543;28;20182;-74
2022/12/19 09:26:45;;;;;;;57.23;21.93;;;4.90;86.30;;;;;;5026255;28;20238;-74
2022/12/19 09:29:11;;;;;;;53.13;23.60;;;4.90;86.00;;;;;;5027673;28;20177;-74
2022/12/19 09:31:36;;;;;;;63.37;27.23;;;4.80;85.60;;;;;;5022621;28;20722;-73
2022/12/19 09:34:02;;;;;;;81.77;26.40;;;4.80;84.90;;;;;;5016729;28;20434;-75
2022/12/19 09:36:28;;;;;;;70.97;26.63;;;4.70;84.40;;;;;;5022967;28;20581;-72
2022/12/19 09:38:55;;;;;;;57.83;23.63;;;4.70;84.30;;;;;;5026610;28;20201;-75
2022/12/19 09:41:43;;;;;;;51.77;23.70;;;4.70;84.40;;;;;;5019964;28;20213;-74
2022/12/19 09:44:51;;;;;;;49.57;23.63;;;4.80;84.90;;;;;;5021067;28;20412;-75
2022/12/19 09:47:20;;;;;;;55.27;22.27;;;4.80;85.00;;;;;;5012151;28;20515;-74
2022/12/19 09:49:47;;;;;;;51.87;22.97;;;5.00;85.00;;;;;;5025314;28;20455;-75
2022/12/19 09:52:37;;;;;;;56.33;24.53;;;5.10;85.00;;;;;;5020422;28;20480;-74
2022/12/19 09:55:17;;;;;;;55.57;21.27;;;5.20;85.20;;;;;;5021750;28;20413;-75
2022/12/19 09:57:48;;;;;;;45.43;21.03;;;5.40;85.00;;;;;;5018336;28;20467;-76
2022/12/19 10:00:20;;;;;;;45.00;19.33;;;5.50;84.40;;;;;;5020732;28;20425;-76
2022/12/19 10:03:00;;;;;;;41.77;19.87;;;5.60;84.10;;;;;;5024095;28;20463;-75
2022/12/19 10:05:32;;;;;;;58.97;25.00;;;5.70;84.10;;;;;;5025765;28;20416;-76
2022/12/19 10:08:00;;;;;;;56.77;25.17;;;5.70;84.00;;;;;;5023876;28;20566;-74
2022/12/19 10:10:49;;;;;;;56.73;23.70;;;5.80;82.80;;;;;;5021565;28;20494;-74
2022/12/19 10:13:19;;;;;;;55.20;23.70;;;5.80;82.50;;;;;;5025461;28;20427;-74
2022/12/19 10:15:56;;;;;;;60.00;25.90;;;6.00;82.10;;;;;;5026096;28;20417;-74
2022/12/19 10:19:03;;;;;;;61.47;26.60;;;6.20;81.80;;;;;;5023966;28;20472;-74
2022/12/19 10:21:43;;;;;;;58.00;21.20;;;6.40;80.80;;;;;;5011056;28;20459;-74
2022/12/19 10:24:42;;;;;;;49.40;19.83;;;6.50;80.00;;;;;;5023478;28;20424;-74
2022/12/19 10:27:42;;;;;;;51.47;24.77;;;6.60;79.20;;;;;;5028358;28;20419;-75
2022/12/19 10:30:17;;;;;;;46.80;20.60;;;6.60;79.20;;;;;;5010005;28;20431;-74
2022/12/19 10:32:58;;;;;;;51.53;22.30;;;6.60;78.90;;;;;;5027162;28;20624;-73
2022/12/19 10:35:32;;;;;;;50.43;22.53;;;6.60;78.70;;;;;;5023096;28;20950;-73
2022/12/19 10:38:09;;;;;;;61.73;24.70;;;6.60;78.70;;;;;;5020799;28;20459;-74
2022/12/19 10:40:42;;;;;;;50.27;22.83;;;6.60;78.70;;;;;;5013387;28;20782;-74
2022/12/19 10:43:45;;;;;;;42.53;19.77;;;6.70;78.70;;;;;;5020855;28;20415;-76
2022/12/19 10:46:27;;;;;;;41.97;18.90;;;6.70;78.60;;;;;;5025891;28;20439;-76
2022/12/19 10:48:53;;;;;;;46.60;19.57;;;6.80;78.60;;;;;;5021910;28;20420;-74
2022/12/19 10:51:24;;;;;;;50.07;23.17;;;6.80;78.00;;;;;;5025099;28;20513;-77
2022/12/19 10:53:56;;;;;;;46.40;20.13;;;6.90;77.80;;;;;;5021051;28;20204;-75
2022/12/19 10:56:25;;;;;;;47.87;22.43;;;6.90;77.80;;;;;;5023560;28;20566;-75
2022/12/19 10:58:57;;;;;;;58.53;23.23;;;6.90;78.00;;;;;;5019173;28;20460;-76
2022/12/19 11:01:27;;;;;;;43.60;22.37;;;6.90;78.10;;;;;;5023765;28;20909;-75
2022/12/19 11:04:10;;;;;;;51.60;22.83;;;6.90;78.10;;;;;;5016743;28;20850;-75
2022/12/19 11:06:42;;;;;;;45.93;22.47;;;7.00;78.10;;;;;;5018870;28;20416;-74
2022/12/19 11:09:35;;;;;;;50.30;21.67;;;7.00;78.10;;;;;;5018273;28;20432;-75
2022/12/19 11:12:07;;;;;;;49.07;22.33;;;7.10;78.30;;;;;;5015511;28;20491;-74
2022/12/19 11:14:35;;;;;;;41.77;19.77;;;7.20;78.00;;;;;;5021802;28;20485;-76
2022/12/19 11:17:01;;;;;;;44.60;22.13;;;7.20;78.00;;;;;;5016748;28;20420;-74
2022/12/19 11:19:32;;;;;;;49.43;21.33;;;7.30;77.80;;;;;;5023763;28;20884;-77
2022/12/19 11:22:19;;;;;;;44.70;22.47;;;7.30;77.80;;;;;;5021007;28;20546;-75
2022/12/19 11:24:50;;;;;;;44.50;20.80;;;7.40;77.30;;;;;;5018689;28;20466;-76
2022/12/19 11:27:41;;;;;;;50.80;22.77;;;7.40;77.30;;;;;;5025224;28;20424;-75
2022/12/19 11:30:19;;;;;;;52.50;24.00;;;7.50;77.00;;;;;;5031224;28;20426;-75
2022/12/19 11:32:47;;;;;;;45.93;21.60;;;7.50;76.50;;;;;;5028003;28;20517;-75
2022/12/19 11:35:25;;;;;;;48.63;22.43;;;7.50;76.50;;;;;;5027703;28;20515;-76
2022/12/19 11:37:55;;;;;;;52.27;24.93;;;7.50;77.10;;;;;;5025647;28;20467;-75
2022/12/19 11:40:29;;;;;;;60.80;25.73;;;7.50;76.70;;;;;;5025440;28;20440;-75
2022/12/19 11:43:02;;;;;;;53.43;24.40;;;7.50;76.40;;;;;;5029167;28;20444;-75
2022/12/19 11:45:53;;;;;;;52.90;23.57;;;7.50;76.50;;;;;;5032181;28;20439;-76
2022/12/19 11:48:23;;;;;;;42.37;21.73;;;7.60;76.70;;;;;;5027693;28;20431;-75
2022/12/19 11:51:14;;;;;;;44.63;22.40;;;7.60;76.70;;;;;;5018937;28;20828;-76
2022/12/19 11:54:17;;;;;;;53.77;22.63;;;7.60;76.70;;;;;;4998984;28;20520;-76
2022/12/19 11:56:43;;;;;;;57.63;25.70;;;7.70;76.70;;;;;;5025189;28;20476;-76
2022/12/19 11:59:23;;;;;;;42.90;22.10;;;7.80;76.20;;;;;;5018173;28;20467;-75
2022/12/19 12:01:59;;;;;;;38.17;20.93;;;7.80;76.10;;;;;;5021531;28;20262;-75
2022/12/19 12:04:27;;;;;;;48.67;24.60;;;7.90;76.20;;;;;;5023520;28;20426;-75
2022/12/19 12:06:55;;;;;;;46.13;22.77;;;8.00;75.90;;;;;;5024842;28;20420;-77
2022/12/19 12:09:45;;;;;;;44.90;22.80;;;8.10;75.90;;;;;;5019761;28;20463;-76
2022/12/19 12:12:37;;;;;;;59.37;25.07;;;8.10;75.50;;;;;;5027634;28;20855;-76
2022/12/19 12:15:24;;;;;;;56.83;24.37;;;7.90;74.90;;;;;;5027596;28;20849;-75
2022/12/19 12:17:56;;;;;;;67.63;26.83;;;7.90;75.10;;;;;;5022035;28;20460;-76
2022/12/19 12:20:45;;;;;;;54.33;26.07;;;7.90;75.10;;;;;;5030933;28;20466;-75
2022/12/19 12:23:29;;;;;;;57.03;25.67;;;7.90;75.20;;;;;;5029294;28;20420;-76
2022/12/19 12:25:55;;;;;;;55.97;24.60;;;8.00;75.50;;;;;;5031077;28;20432;-75
2022/12/19 12:28:38;;;;;;;51.33;24.10;;;8.00;75.10;;;;;;5025096;28;20507;-75
2022/12/19 12:31:22;;;;;;;52.07;23.60;;;8.00;75.10;;;;;;5029104;28;20212;-75
2022/12/19 12:34:29;;;;;;;49.77;22.40;;;8.00;75.50;;;;;;5027555;28;20777;-76
2022/12/19 12:37:13;;;;;;;43.03;22.23;;;8.00;75.70;;;;;;5016225;28;20437;-75
2022/12/19 12:39:45;;;;;;;47.07;23.30;;;8.10;75.50;;;;;;5025802;28;20475;-79
2022/12/19 12:42:33;;;;;;;41.80;21.33;;;8.10;75.50;;;;;;5018079;28;21042;-76
2022/12/19 12:45:01;;;;;;;44.60;21.50;;;8.10;75.80;;;;;;5020778;28;20417;-77
2022/12/19 12:47:29;;;;;;;45.73;20.60;;;8.10;75.80;;;;;;5024093;28;20420;-74
2022/12/19 12:49:59;;;;;;;34.33;17.93;;;8.20;75.80;;;;;;5025472;28;20790;-75
2022/12/19 12:52:42;;;;;;;37.60;18.53;;;8.30;75.80;;;;;;5026310;28;20559;-78
2022/12/19 12:55:22;;;;;;;32.50;17.03;;;8.30;75.80;;;;;;5022780;28;20788;-75
2022/12/19 12:57:48;;;;;;;33.60;17.90;;;8.30;75.50;;;;;;5024507;28;20464;-76
2022/12/19 13:00:28;;;;;;;35.63;17.67;;;8.40;75.40;;;;;;5028041;28;20420;-77
2022/12/19 13:03:05;;;;;;;33.63;17.80;;;8.40;75.50;;;;;;5027895;28;20776;-77